createdAt,value
2018-08-31T00:01:13.334Z,101743.20
2018-08-31T00:05:55.441Z,101741.83
2018-08-31T00:10:39.264Z,101745.27
2018-08-31T00:13:08.555Z,101740.85
2018-08-31T00:15:37.148Z,101738.81
2018-08-31T00:18:05.387Z,101737.48
2018-08-31T00:20:33.643Z,101740.16
2018-08-31T00:23:01.811Z,101738.47
2018-08-31T00:26:09.815Z,101730.45
2018-08-31T00:28:49.985Z,101730.45
2018-08-31T00:33:36.312Z,101730.98
2018-08-31T00:40:25.882Z,101723.25
2018-08-31T00:45:14.047Z,101715.29
2018-08-31T00:47:42.735Z,101714.83
2018-08-31T00:50:10.958Z,101714.20
2018-08-31T00:52:39.156Z,101719.25
2018-08-31T00:55:07.666Z,101713.91
2018-08-31T00:57:35.843Z,101717.92
2018-08-31T01:00:04.050Z,101716.23
2018-08-31T01:02:32.276Z,101713.21
2018-08-31T01:05:00.483Z,101718.69
2018-08-31T01:07:28.739Z,101713.35
2018-08-31T01:09:56.924Z,101715.53
2018-08-31T01:12:25.190Z,101711.87
2018-08-31T01:14:53.359Z,101711.73
2018-08-31T01:17:21.554Z,101709.56
2018-08-31T01:19:49.744Z,101704.43
2018-08-31T01:22:17.908Z,101713.28
2018-08-31T01:24:46.128Z,101712.30
2018-08-31T01:27:14.299Z,101709.11
2018-08-31T01:29:42.531Z,101711.63
2018-08-31T01:32:11.211Z,101705.66
2018-08-31T01:34:39.720Z,101703.27
2018-08-31T01:37:07.893Z,101708.30
2018-08-31T01:39:36.127Z,101713.11
2018-08-31T01:42:04.407Z,101707.28
2018-08-31T01:44:32.811Z,101699.94
2018-08-31T01:47:01.026Z,101702.95
2018-08-31T01:49:29.241Z,101702.95
2018-08-31T01:51:57.454Z,101700.29
2018-08-31T01:54:25.667Z,101710.96
2018-08-31T01:56:53.931Z,101713.07
2018-08-31T01:59:22.163Z,101707.87
2018-08-31T02:01:50.320Z,101711.87
2018-08-31T02:04:18.627Z,101707.03
2018-08-31T02:06:46.750Z,101711.87
2018-08-31T02:09:18.403Z,101707.17
2018-08-31T02:11:47.112Z,101704.51
2018-08-31T02:14:15.284Z,101713.60
2018-08-31T02:16:43.484Z,101712.16
2018-08-31T02:19:11.651Z,101716.02
2018-08-31T02:21:39.854Z,101715.04
2018-08-31T02:24:08.282Z,101716.72
2018-08-31T02:26:36.755Z,101717.92
2018-08-31T02:29:05.061Z,101721.92
2018-08-31T02:31:33.222Z,101715.25
2018-08-31T02:34:01.430Z,101714.76
2018-08-31T02:36:29.816Z,101715.59
2018-08-31T02:38:58.044Z,101713.07
2018-08-31T02:41:26.214Z,101712.23
2018-08-31T02:43:54.451Z,101710.41
2018-08-31T02:46:23.261Z,101715.11
2018-08-31T02:48:52.263Z,101714.61
2018-08-31T02:51:21.046Z,101708.30
2018-08-31T02:53:49.206Z,101712.62
2018-08-31T02:56:17.430Z,101706.78
2018-08-31T02:58:45.612Z,101703.27
2018-08-31T03:01:13.798Z,101707.94
2018-08-31T03:03:42.134Z,101707.45
2018-08-31T03:06:10.398Z,101706.61
2018-08-31T03:08:38.585Z,101708.78
2018-08-31T03:11:06.887Z,101703.59
2018-08-31T03:13:35.054Z,101702.75
2018-08-31T03:16:03.267Z,101705.91
2018-08-31T03:18:31.507Z,101702.89
2018-08-31T03:20:59.775Z,101697.70
2018-08-31T03:23:27.967Z,101703.88
2018-08-31T03:25:56.155Z,101700.86
2018-08-31T03:28:24.338Z,101702.05
2018-08-31T03:30:52.710Z,101702.54
2018-08-31T03:33:20.870Z,101703.17
2018-08-31T03:35:49.059Z,101704.75
2018-08-31T03:38:17.236Z,101702.93
2018-08-31T03:40:45.473Z,101705.73
2018-08-31T03:43:13.683Z,101705.39
2018-08-31T03:45:41.890Z,101713.05
2018-08-31T03:48:10.171Z,101711.36
2018-08-31T03:50:38.345Z,101712.69
2018-08-31T03:53:06.570Z,101709.84
2018-08-31T03:55:34.834Z,101709.98
2018-08-31T03:58:03.031Z,101714.62
2018-08-31T04:00:31.249Z,101711.25
2018-08-31T04:02:59.396Z,101713.56
2018-08-31T04:05:27.612Z,101711.39
2018-08-31T04:07:55.854Z,101717.42
2018-08-31T04:10:24.037Z,101717.28
2018-08-31T04:12:52.242Z,101714.97
2018-08-31T04:15:20.427Z,101717.84
2018-08-31T04:17:48.667Z,101718.03
2018-08-31T04:20:16.911Z,101716.69
2018-08-31T04:22:45.105Z,101717.89
2018-08-31T04:25:13.271Z,101715.22
2018-08-31T04:27:41.483Z,101714.73
2018-08-31T04:30:09.726Z,101713.39
2018-08-31T04:32:37.911Z,101715.92
2018-08-31T04:35:06.092Z,101711.08
2018-08-31T04:37:34.283Z,101712.41
2018-08-31T04:40:02.547Z,101716.77
2018-08-31T04:42:30.726Z,101717.25
2018-08-31T04:44:59.163Z,101712.91
2018-08-31T04:47:27.347Z,101716.91
2018-08-31T04:49:55.548Z,101717.53
2018-08-31T04:52:23.829Z,101716.69
2018-08-31T04:54:52.087Z,101710.69
2018-08-31T04:57:20.292Z,101718.20
2018-08-31T04:59:48.443Z,101712.02
2018-08-31T05:02:16.635Z,101713.36
2018-08-31T05:04:44.992Z,101713.98
2018-08-31T05:07:13.291Z,101714.13
2018-08-31T05:09:41.478Z,101714.97
2018-08-31T05:12:09.701Z,101712.94
2018-08-31T05:14:37.883Z,101719.60
2018-08-31T05:17:06.090Z,101715.59
2018-08-31T05:19:35.266Z,101720.09
2018-08-31T05:22:03.564Z,101722.90
2018-08-31T05:24:31.771Z,101720.38
2018-08-31T05:26:59.937Z,101721.70
2018-08-31T05:29:28.110Z,101720.72
2018-08-31T05:31:56.295Z,101721.22
2018-08-31T05:34:24.547Z,101719.88
2018-08-31T05:36:52.755Z,101721.92
2018-08-31T05:39:20.940Z,101726.27
2018-08-31T05:41:49.146Z,101730.00
2018-08-31T05:44:17.407Z,101732.52
2018-08-31T05:46:45.662Z,101729.86
2018-08-31T05:49:13.815Z,101736.88
2018-08-31T05:51:42.022Z,101736.70
2018-08-31T05:54:10.267Z,101738.04
2018-08-31T05:56:38.580Z,101738.25
2018-08-31T05:59:06.827Z,101740.43
2018-08-31T06:01:35.087Z,101746.96
2018-08-31T06:04:03.263Z,101748.44
2018-08-31T06:06:31.519Z,101753.28
2018-08-31T06:08:59.754Z,101751.38
2018-08-31T06:11:28.042Z,101757.66
2018-08-31T06:13:56.271Z,101763.34
2018-08-31T06:16:24.459Z,101770.72
2018-08-31T06:18:52.635Z,101765.73
2018-08-31T06:21:20.895Z,101760.41
2018-08-31T06:23:49.087Z,101768.05
2018-08-31T06:26:17.296Z,101765.43
2018-08-31T06:28:45.558Z,101770.23
2018-08-31T06:31:13.784Z,101772.48
2018-08-31T06:33:41.972Z,101768.52
2018-08-31T06:36:10.143Z,101769.44
2018-08-31T06:38:38.435Z,101771.34
2018-08-31T06:41:06.635Z,101775.55
2018-08-31T06:43:34.832Z,101778.96
2018-08-31T06:46:03.050Z,101782.75
2018-08-31T06:48:31.257Z,101783.31
2018-08-31T06:50:59.451Z,101778.29
2018-08-31T06:53:27.632Z,101783.70
2018-08-31T06:55:55.830Z,101778.70
2018-08-31T06:58:24.019Z,101785.73
2018-08-31T07:00:52.696Z,101785.09
2018-08-31T07:03:20.925Z,101785.80
2018-08-31T07:05:49.126Z,101784.67
2018-08-31T07:08:17.282Z,101788.67
2018-08-31T07:10:45.488Z,101793.21
2018-08-31T07:13:13.727Z,101794.27
2018-08-31T07:15:41.870Z,101798.83
2018-08-31T07:18:10.067Z,101797.00
2018-08-31T07:20:38.275Z,101800.58
2018-08-31T07:23:06.534Z,101798.92
2018-08-31T07:25:34.727Z,101801.59
2018-08-31T07:28:02.910Z,101796.59
2018-08-31T07:30:31.114Z,101798.98
2018-08-31T07:32:59.305Z,101800.03
2018-08-31T07:35:27.606Z,101798.06
2018-08-31T07:37:55.804Z,101797.56
2018-08-31T07:40:24.017Z,101806.63
2018-08-31T07:42:52.200Z,101804.31
2018-08-31T07:45:20.387Z,101806.80
2018-08-31T07:47:48.694Z,101804.83
2018-08-31T07:50:16.840Z,101802.80
2018-08-31T07:52:45.220Z,101804.22
2018-08-31T07:55:13.421Z,101805.77
2018-08-31T07:57:41.612Z,101809.63
2018-08-31T08:00:09.822Z,101810.53
2018-08-31T08:02:38.162Z,101809.19
2018-08-31T08:05:06.365Z,101815.61
2018-08-31T08:07:34.580Z,101807.79
2018-08-31T08:10:02.846Z,101814.75
2018-08-31T08:12:31.105Z,101818.32
2018-08-31T08:14:59.384Z,101811.34
2018-08-31T08:17:27.582Z,101807.19
2018-08-31T08:19:55.755Z,101810.75
2018-08-31T08:22:24.150Z,101814.34
2018-08-31T08:24:52.447Z,101816.07
2018-08-31T08:27:20.646Z,101808.70
2018-08-31T08:29:48.842Z,101813.11
2018-08-31T08:32:17.030Z,101814.50
2018-08-31T08:34:45.630Z,101813.06
2018-08-31T08:37:13.959Z,101823.33
2018-08-31T08:39:42.256Z,101821.72
2018-08-31T08:42:10.469Z,101824.75
2018-08-31T08:44:38.606Z,101826.09
2018-08-31T08:47:07.207Z,101815.92
2018-08-31T08:49:35.466Z,101818.15
2018-08-31T08:52:03.715Z,101819.03
2018-08-31T08:54:31.907Z,101821.72
2018-08-31T08:57:00.087Z,101817.94
2018-08-31T08:59:28.306Z,101812.63
2018-08-31T09:01:56.518Z,101819.32
2018-08-31T09:04:24.754Z,101816.68
2018-08-31T09:06:52.980Z,101815.19
2018-08-31T09:09:21.156Z,101819.74
2018-08-31T09:11:49.400Z,101813.23
2018-08-31T09:14:17.563Z,101808.03
2018-08-31T09:16:45.807Z,101808.38
2018-08-31T09:19:13.989Z,101807.20
2018-08-31T09:21:42.160Z,101811.55
2018-08-31T09:24:10.359Z,101807.38
2018-08-31T09:26:38.570Z,101813.58
2018-08-31T09:29:06.788Z,101811.55
2018-08-31T09:31:34.934Z,101804.70
2018-08-31T09:34:03.406Z,101806.05
2018-08-31T09:36:31.607Z,101801.72
2018-08-31T09:38:59.875Z,101800.41
2018-08-31T09:41:28.057Z,101796.08
2018-08-31T09:43:56.246Z,101796.42
2018-08-31T09:46:24.408Z,101800.26
2018-08-31T09:48:52.647Z,101802.78
2018-08-31T09:51:20.923Z,101798.42
2018-08-31T09:53:49.141Z,101798.60
2018-08-31T09:56:17.341Z,101791.06
2018-08-31T09:58:45.543Z,101788.35
2018-08-31T10:01:19.131Z,101785.45
2018-08-31T10:03:47.348Z,101788.35
2018-08-31T10:06:15.534Z,101782.03
2018-08-31T10:08:43.735Z,101783.19
2018-08-31T10:11:11.934Z,101780.88
2018-08-31T10:13:40.203Z,101775.39
2018-08-31T10:16:08.820Z,101780.44
2018-08-31T10:18:37.079Z,101776.41
2018-08-31T10:21:05.555Z,101778.18
2018-08-31T10:23:33.755Z,101767.81
2018-08-31T10:26:01.998Z,101769.20
2018-08-31T10:28:30.244Z,101773.89
2018-08-31T10:30:58.440Z,101761.51
2018-08-31T10:33:26.652Z,101770.91
2018-08-31T10:35:54.819Z,101771.10
2018-08-31T10:38:23.071Z,101772.64
2018-08-31T10:40:51.325Z,101773.48
2018-08-31T10:43:19.547Z,101763.61
2018-08-31T10:45:47.775Z,101768.29
2018-08-31T10:48:16.043Z,101767.34
2018-08-31T10:50:44.306Z,101766.69
2018-08-31T10:53:12.564Z,101762.65
2018-08-31T10:55:40.780Z,101764.48
2018-08-31T10:58:09.095Z,101757.61
2018-08-31T11:00:37.327Z,101764.47
2018-08-31T11:03:05.605Z,101757.22
2018-08-31T11:05:33.815Z,101759.23
2018-08-31T11:08:02.022Z,101758.97
2018-08-31T11:10:30.217Z,101757.56
2018-08-31T11:12:58.419Z,101753.95
2018-08-31T11:15:26.627Z,101748.52
2018-08-31T11:17:54.940Z,101746.59
2018-08-31T11:20:23.146Z,101747.16
2018-08-31T11:22:51.358Z,101739.88
2018-08-31T11:25:19.643Z,101742.47
2018-08-31T11:27:47.935Z,101738.41
2018-08-31T11:30:16.198Z,101737.16
2018-08-31T11:32:44.592Z,101743.68
2018-08-31T11:35:12.824Z,101739.95
2018-08-31T11:37:41.060Z,101746.29
2018-08-31T11:40:09.287Z,101745.02
2018-08-31T11:42:37.531Z,101750.66
2018-08-31T11:45:06.087Z,101747.14
2018-08-31T11:47:34.275Z,101749.00
2018-08-31T11:50:02.488Z,101741.14
2018-08-31T11:52:30.793Z,101736.06
2018-08-31T11:54:59.349Z,101736.34
2018-08-31T11:57:27.607Z,101734.20
2018-08-31T11:59:55.901Z,101733.73
2018-08-31T12:02:24.116Z,101728.56
2018-08-31T12:04:52.323Z,101727.78
2018-08-31T12:07:20.554Z,101722.63
2018-08-31T12:09:48.875Z,101722.75
2018-08-31T12:12:17.126Z,101728.31
2018-08-31T12:14:45.439Z,101729.97
2018-08-31T12:17:13.657Z,101724.59
2018-08-31T12:19:41.983Z,101726.53
2018-08-31T12:22:10.256Z,101728.80
2018-08-31T12:24:38.769Z,101733.08
2018-08-31T12:27:07.022Z,101733.30
2018-08-31T12:29:35.241Z,101728.94
2018-08-31T12:32:21.464Z,101725.42
2018-08-31T12:34:49.643Z,101726.64
2018-08-31T12:37:18.162Z,101731.02
2018-08-31T12:39:46.382Z,101733.20
2018-08-31T12:42:14.743Z,101728.16
2018-08-31T12:44:43.020Z,101730.69
2018-08-31T12:47:11.298Z,101731.02
2018-08-31T12:49:39.542Z,101731.69
2018-08-31T12:52:07.730Z,101732.53
2018-08-31T12:54:36.115Z,101729.67
2018-08-31T12:57:04.642Z,101740.08
2018-08-31T12:59:32.847Z,101739.70
2018-08-31T13:02:01.041Z,101736.95
2018-08-31T13:04:29.401Z,101731.33
2018-08-31T13:06:57.789Z,101726.71
2018-08-31T13:09:26.023Z,101717.72
2018-08-31T13:11:54.234Z,101717.75
2018-08-31T13:14:22.429Z,101716.41
2018-08-31T13:16:50.663Z,101722.16
2018-08-31T13:19:18.883Z,101710.94
2018-08-31T13:21:47.130Z,101706.55
2018-08-31T13:24:15.331Z,101707.25
2018-08-31T13:26:43.594Z,101699.92
2018-08-31T13:29:11.765Z,101694.94
2018-08-31T13:31:39.994Z,101698.61
2018-08-31T13:34:08.226Z,101696.75
2018-08-31T13:36:36.476Z,101698.80
2018-08-31T13:39:06.266Z,101689.80
2018-08-31T13:41:34.451Z,101689.33
2018-08-31T13:44:02.736Z,101691.04
2018-08-31T13:46:30.943Z,101695.95
2018-08-31T13:48:59.134Z,101703.27
2018-08-31T13:51:27.318Z,101699.09
2018-08-31T13:53:55.518Z,101706.16
2018-08-31T13:56:23.882Z,101703.60
2018-08-31T13:58:52.156Z,101702.88
2018-08-31T14:01:20.373Z,101710.70
2018-08-31T14:03:48.649Z,101704.80
2018-08-31T14:06:16.833Z,101709.84
2018-08-31T14:08:45.051Z,101707.44
2018-08-31T14:11:13.289Z,101712.48
2018-08-31T14:13:41.507Z,101711.78
2018-08-31T14:16:09.773Z,101717.19
2018-08-31T14:18:38.111Z,101706.92
2018-08-31T14:21:06.434Z,101705.84
2018-08-31T14:23:34.585Z,101711.00
2018-08-31T14:26:02.843Z,101710.81
2018-08-31T14:28:31.048Z,101709.98
2018-08-31T14:30:59.288Z,101710.16
2018-08-31T14:33:27.483Z,101706.44
2018-08-31T14:35:55.833Z,101702.14
2018-08-31T14:38:24.266Z,101707.22
2018-08-31T14:40:52.595Z,101703.92
2018-08-31T14:43:20.800Z,101706.34
2018-08-31T14:45:49.112Z,101705.28
2018-08-31T14:48:17.501Z,101707.35
2018-08-31T14:50:45.784Z,101706.88
2018-08-31T14:53:14.119Z,101706.22
2018-08-31T14:55:42.508Z,101705.37
2018-08-31T14:58:10.708Z,101711.20
2018-08-31T15:00:38.928Z,101709.31
2018-08-31T15:03:07.197Z,101707.22
2018-08-31T15:05:35.435Z,101705.73
2018-08-31T15:08:03.979Z,101708.33
2018-08-31T15:10:32.194Z,101697.28
2018-08-31T15:13:00.466Z,101710.05
2018-08-31T15:15:28.730Z,101713.77
2018-08-31T15:17:56.963Z,101716.95
2018-08-31T15:20:25.179Z,101708.05
2018-08-31T15:22:53.403Z,101704.03
2018-08-31T15:25:21.747Z,101707.03
2018-08-31T15:27:49.949Z,101705.36
2018-08-31T15:30:18.199Z,101709.23
2018-08-31T15:32:46.492Z,101706.09
2018-08-31T15:35:14.779Z,101709.64
2018-08-31T15:37:42.995Z,101712.17
2018-08-31T15:40:11.323Z,101707.98
2018-08-31T15:42:39.650Z,101708.82
2018-08-31T15:45:07.964Z,101705.29
2018-08-31T15:47:36.218Z,101700.10
2018-08-31T15:50:04.471Z,101701.47
2018-08-31T15:52:32.671Z,101704.51
2018-08-31T15:55:00.932Z,101702.69
2018-08-31T15:57:29.137Z,101706.61
2018-08-31T15:59:57.474Z,101712.84
2018-08-31T16:02:25.695Z,101710.66
2018-08-31T16:04:53.883Z,101715.86
2018-08-31T16:07:22.159Z,101710.99
2018-08-31T16:09:50.435Z,101718.72
2018-08-31T16:12:18.807Z,101718.55
2018-08-31T16:14:46.998Z,101718.53
2018-08-31T16:17:15.331Z,101718.83
2018-08-31T16:19:43.670Z,101718.66
2018-08-31T16:22:11.926Z,101718.81
2018-08-31T16:24:40.127Z,101716.67
2018-08-31T16:27:08.387Z,101718.70
2018-08-31T16:29:36.586Z,101720.41
2018-08-31T16:32:04.824Z,101720.47
2018-08-31T16:34:33.031Z,101721.33
2018-08-31T16:37:01.378Z,101716.52
2018-08-31T16:39:29.631Z,101718.53
2018-08-31T16:41:57.832Z,101718.03
2018-08-31T16:44:26.095Z,101723.62
2018-08-31T16:46:54.426Z,101720.43
2018-08-31T16:49:22.662Z,101722.62
2018-08-31T16:51:50.858Z,101720.77
2018-08-31T16:54:19.107Z,101724.17
2018-08-31T16:56:47.363Z,101721.28
2018-08-31T16:59:15.555Z,101721.95
2018-08-31T17:01:43.754Z,101721.28
2018-08-31T17:04:11.979Z,101722.30
2018-08-31T17:06:40.469Z,101723.97
2018-08-31T17:09:10.623Z,101726.33
2018-08-31T17:11:38.846Z,101722.47
2018-08-31T17:14:07.084Z,101724.64
2018-08-31T17:16:35.321Z,101726.66
2018-08-31T17:19:03.611Z,101728.37
2018-08-31T17:21:31.851Z,101733.25
2018-08-31T17:24:00.369Z,101733.75
2018-08-31T17:26:33.951Z,101731.42
2018-08-31T17:29:07.562Z,101729.41
2018-08-31T17:31:41.191Z,101731.76
2018-08-31T17:34:14.910Z,101732.42
2018-08-31T17:36:48.310Z,101737.48
2018-08-31T17:39:16.526Z,101738.31
2018-08-31T17:41:44.771Z,101737.16
2018-08-31T17:44:12.984Z,101738.48
2018-08-31T17:46:41.622Z,101739.48
2018-08-31T17:49:09.800Z,101745.21
2018-08-31T17:51:38.036Z,101746.17
2018-08-31T17:54:06.335Z,101752.87
2018-08-31T17:56:34.578Z,101755.87
2018-08-31T17:59:02.909Z,101749.85
2018-08-31T18:01:31.108Z,101761.41
2018-08-31T18:03:59.357Z,101763.73
2018-08-31T18:06:27.490Z,101767.94
2018-08-31T18:08:55.723Z,101762.55
2018-08-31T18:11:23.923Z,101763.88
2018-08-31T18:13:52.099Z,101766.23
2018-08-31T18:16:20.355Z,101765.53
2018-08-31T18:18:48.535Z,101770.88
2018-08-31T18:21:17.477Z,101771.55
2018-08-31T18:23:45.698Z,101775.54
2018-08-31T18:26:13.991Z,101778.20
2018-08-31T18:28:42.258Z,101774.16
2018-08-31T18:31:10.530Z,101778.18
2018-08-31T18:33:38.704Z,101775.78
2018-08-31T18:36:06.982Z,101777.75
2018-08-31T18:38:35.172Z,101785.58
2018-08-31T18:41:03.413Z,101789.38
2018-08-31T18:43:31.717Z,101787.36
2018-08-31T18:45:59.983Z,101792.49
2018-08-31T18:48:28.248Z,101794.98
2018-08-31T18:50:56.436Z,101795.59
2018-08-31T18:53:24.647Z,101799.39
2018-08-31T18:55:52.838Z,101801.53
2018-08-31T18:58:21.078Z,101803.97
2018-08-31T19:00:49.291Z,101808.28
2018-08-31T19:03:17.486Z,101811.91
2018-08-31T19:05:45.747Z,101815.23
2018-08-31T19:08:14.035Z,101814.11
2018-08-31T19:10:42.294Z,101820.91
2018-08-31T19:13:10.499Z,101819.20
2018-08-31T19:15:38.732Z,101827.53
2018-08-31T19:18:07.148Z,101828.12
2018-08-31T19:20:35.334Z,101834.45
2018-08-31T19:23:03.540Z,101840.25
2018-08-31T19:25:31.884Z,101842.52
2018-08-31T19:28:00.150Z,101846.02
2018-08-31T19:30:28.368Z,101847.95
2018-08-31T19:32:56.558Z,101848.09
2018-08-31T19:35:24.763Z,101855.42
2018-08-31T19:37:52.930Z,101853.73
2018-08-31T19:40:21.095Z,101860.56
2018-08-31T19:42:49.287Z,101856.20
2018-08-31T19:45:17.810Z,101858.22
2018-08-31T19:47:46.066Z,101859.20
2018-08-31T19:50:14.334Z,101851.82
2018-08-31T19:52:42.536Z,101853.80
2018-08-31T19:55:10.919Z,101854.29
2018-08-31T19:57:39.104Z,101859.09
2018-08-31T20:00:07.464Z,101863.04
2018-08-31T20:02:36.387Z,101867.37
2018-08-31T20:05:04.620Z,101864.00
2018-08-31T20:07:32.790Z,101865.13
2018-08-31T20:10:01.015Z,101867.59
2018-08-31T20:12:29.288Z,101869.57
2018-08-31T20:14:59.328Z,101870.91
2018-08-31T20:17:27.600Z,101875.77
2018-08-31T20:19:55.842Z,101875.41
2018-08-31T20:22:25.035Z,101872.88
2018-08-31T20:24:53.294Z,101878.69
2018-08-31T20:27:21.579Z,101885.16
2018-08-31T20:29:49.855Z,101885.91
2018-08-31T20:32:18.115Z,101884.02
2018-08-31T20:34:46.504Z,101885.21
2018-08-31T20:37:14.750Z,101882.19
2018-08-31T20:39:43.115Z,101887.67
2018-08-31T20:42:11.335Z,101890.00
2018-08-31T20:44:39.556Z,101895.31
2018-08-31T20:47:08.387Z,101891.23
2018-08-31T20:49:37.006Z,101897.84
2018-08-31T20:52:05.594Z,101896.12
2018-08-31T20:54:33.878Z,101899.21
2018-08-31T20:57:02.261Z,101905.33
2018-08-31T20:59:30.575Z,101911.09
2018-08-31T21:01:58.827Z,101902.82
2018-08-31T21:04:27.018Z,101903.94
2018-08-31T21:06:55.242Z,101905.42
2018-08-31T21:09:23.475Z,101903.03
2018-08-31T21:11:51.710Z,101900.00
2018-08-31T21:14:19.919Z,101901.97
2018-08-31T21:16:48.171Z,101902.98
2018-08-31T21:19:16.424Z,101908.81
2018-08-31T21:21:44.727Z,101911.63
2018-08-31T21:24:12.896Z,101908.60
2018-08-31T21:26:41.098Z,101900.73
2018-08-31T21:29:11.458Z,101908.03
2018-08-31T21:31:39.676Z,101909.50
2018-08-31T21:34:08.275Z,101907.47
2018-08-31T21:36:36.523Z,101913.57
2018-08-31T21:39:06.012Z,101913.39
2018-08-31T21:41:34.222Z,101911.34
2018-08-31T21:44:02.415Z,101913.58
2018-08-31T21:46:30.662Z,101920.17
2018-08-31T21:48:58.858Z,101923.15
2018-08-31T21:51:27.055Z,101923.42
2018-08-31T21:53:55.477Z,101922.00
2018-08-31T21:56:23.775Z,101923.93
2018-08-31T21:58:52.087Z,101923.58
2018-08-31T22:01:25.740Z,101921.84
2018-08-31T22:03:53.959Z,101921.84
2018-08-31T22:06:22.255Z,101921.27
2018-08-31T22:08:50.427Z,101922.87
2018-08-31T22:11:18.680Z,101923.62
2018-08-31T22:13:46.852Z,101927.89
2018-08-31T22:16:15.074Z,101933.53
2018-08-31T22:18:43.371Z,101923.97
2018-08-31T22:21:11.573Z,101927.27
2018-08-31T22:23:39.751Z,101923.75
2018-08-31T22:26:07.938Z,101920.02
2018-08-31T22:28:36.271Z,101918.59
2018-08-31T22:31:04.530Z,101926.54
2018-08-31T22:33:32.716Z,101923.65
2018-08-31T22:36:00.910Z,101928.41
2018-08-31T22:38:29.123Z,101931.34
2018-08-31T22:40:57.315Z,101935.59
2018-08-31T22:43:30.901Z,101932.09
2018-08-31T22:45:59.158Z,101935.27
2018-08-31T22:48:27.367Z,101935.89
2018-08-31T22:50:55.611Z,101933.84
2018-08-31T22:53:23.846Z,101932.16
2018-08-31T22:55:52.068Z,101930.47
2018-08-31T22:58:20.335Z,101932.29
2018-08-31T23:00:48.662Z,101930.47
2018-08-31T23:03:16.968Z,101925.27
2018-08-31T23:05:45.262Z,101932.42
2018-08-31T23:08:13.455Z,101928.55
2018-08-31T23:10:41.727Z,101932.55
2018-08-31T23:13:09.939Z,101929.89
2018-08-31T23:15:38.256Z,101933.05
2018-08-31T23:18:07.296Z,101932.69
2018-08-31T23:20:35.703Z,101929.53
2018-08-31T23:23:09.308Z,101927.70
2018-08-31T23:25:42.758Z,101938.24
2018-08-31T23:28:10.963Z,101933.05
2018-08-31T23:30:39.276Z,101936.81
